createdAt,value
2018-08-31T00:01:08.459Z,2.93
2018-08-31T00:05:49.358Z,2.83
2018-08-31T00:12:12.117Z,2.10
2018-08-31T00:16:15.687Z,2.20
2018-08-31T00:20:19.651Z,2.83
2018-08-31T00:24:35.239Z,2.10
2018-08-31T00:28:50.755Z,2.80
2018-08-31T00:35:07.247Z,2.30
2018-08-31T00:39:22.766Z,3.50
2018-08-31T00:45:41.507Z,2.50
2018-08-31T00:49:45.206Z,2.67
2018-08-31T00:53:50.328Z,2.50
2018-08-31T00:57:54.910Z,3.00
2018-08-31T01:01:57.780Z,3.07
2018-08-31T01:06:00.884Z,2.83
2018-08-31T01:10:05.759Z,2.77
2018-08-31T01:14:08.378Z,2.43
2018-08-31T01:18:11.056Z,2.40
2018-08-31T01:22:13.701Z,2.47
2018-08-31T01:26:16.381Z,3.00
2018-08-31T01:30:19.016Z,2.30
2018-08-31T01:34:21.759Z,2.30
2018-08-31T01:38:24.379Z,2.30
2018-08-31T01:42:27.081Z,2.40
2018-08-31T01:46:29.661Z,2.13
2018-08-31T01:50:32.260Z,2.40
2018-08-31T01:54:34.916Z,3.37
2018-08-31T01:58:37.543Z,1.93
2018-08-31T02:02:40.187Z,2.30
2018-08-31T02:06:42.816Z,2.50
2018-08-31T02:10:45.447Z,2.67
2018-08-31T02:14:48.064Z,2.43
2018-08-31T02:18:50.728Z,2.40
2018-08-31T02:22:53.348Z,2.50
2018-08-31T02:26:59.891Z,2.20
2018-08-31T02:31:02.620Z,2.70
2018-08-31T02:35:05.394Z,2.87
2018-08-31T02:39:08.098Z,2.00
2018-08-31T02:43:10.912Z,3.53
2018-08-31T02:47:13.621Z,3.17
2018-08-31T02:51:16.329Z,2.67
2018-08-31T02:55:18.972Z,2.50
2018-08-31T02:59:21.764Z,2.90
2018-08-31T03:03:24.508Z,2.97
2018-08-31T03:07:27.145Z,3.13
2018-08-31T03:11:29.976Z,2.67
2018-08-31T03:15:32.597Z,2.80
2018-08-31T03:19:35.268Z,3.23
2018-08-31T03:23:38.093Z,3.53
2018-08-31T03:27:40.788Z,2.90
2018-08-31T03:31:43.485Z,3.57
2018-08-31T03:35:46.193Z,3.37
2018-08-31T03:39:48.963Z,3.67
2018-08-31T03:43:51.587Z,3.20
2018-08-31T03:47:55.274Z,4.00
2018-08-31T03:51:57.971Z,3.60
2018-08-31T03:56:00.620Z,3.37
2018-08-31T04:00:03.779Z,3.30
2018-08-31T04:04:06.442Z,3.40
2018-08-31T04:08:09.063Z,4.00
2018-08-31T04:12:11.677Z,3.43
2018-08-31T04:16:14.215Z,4.20
2018-08-31T04:20:16.838Z,3.00
2018-08-31T04:24:19.508Z,3.73
2018-08-31T04:28:22.180Z,3.33
2018-08-31T04:32:24.897Z,3.77
2018-08-31T04:36:27.565Z,4.13
2018-08-31T04:40:30.297Z,4.20
2018-08-31T04:44:33.959Z,4.70
2018-08-31T04:48:36.592Z,3.50
2018-08-31T04:52:39.255Z,4.00
2018-08-31T04:56:41.947Z,3.10
2018-08-31T05:00:44.568Z,3.40
2018-08-31T05:04:47.292Z,3.77
2018-08-31T05:08:49.926Z,3.43
2018-08-31T05:12:52.729Z,4.13
2018-08-31T05:16:55.284Z,3.63
2018-08-31T05:20:57.829Z,3.43
2018-08-31T05:25:00.539Z,4.10
2018-08-31T05:29:03.292Z,4.47
2018-08-31T05:33:05.985Z,3.43
2018-08-31T05:37:08.606Z,3.63
2018-08-31T05:41:11.192Z,3.63
2018-08-31T05:45:13.826Z,3.10
2018-08-31T05:49:16.429Z,3.37
2018-08-31T05:53:19.098Z,3.70
2018-08-31T05:57:22.402Z,3.80
2018-08-31T06:01:31.894Z,3.17
2018-08-31T06:05:35.962Z,3.13
2018-08-31T06:09:38.579Z,2.97
2018-08-31T06:13:41.238Z,3.07
2018-08-31T06:17:44.301Z,3.27
2018-08-31T06:21:47.237Z,3.20
2018-08-31T06:25:49.871Z,3.30
2018-08-31T06:29:52.891Z,3.23
2018-08-31T06:33:55.613Z,3.20
2018-08-31T06:37:58.218Z,3.30
2018-08-31T06:42:01.179Z,2.80
2018-08-31T06:46:03.853Z,2.63
2018-08-31T06:50:06.763Z,3.00
2018-08-31T06:54:09.392Z,2.67
2018-08-31T06:58:12.123Z,3.30
2018-08-31T07:02:14.852Z,3.97
2018-08-31T07:06:19.588Z,2.80
2018-08-31T07:10:22.302Z,2.67
2018-08-31T07:14:24.961Z,2.80
2018-08-31T07:18:27.611Z,3.27
2018-08-31T07:22:30.237Z,2.83
2018-08-31T07:26:33.050Z,2.37
2018-08-31T07:30:35.620Z,2.77
2018-08-31T07:34:38.243Z,2.83
2018-08-31T07:38:41.008Z,2.27
2018-08-31T07:42:43.725Z,2.30
2018-08-31T07:46:46.472Z,5.80
2018-08-31T07:50:49.177Z,2.00
2018-08-31T07:54:51.927Z,2.60
2018-08-31T07:58:54.678Z,2.40
2018-08-31T08:02:57.352Z,1.87
2018-08-31T08:07:00.004Z,2.50
2018-08-31T08:11:02.685Z,2.90
2018-08-31T08:15:05.516Z,2.90
2018-08-31T08:19:08.254Z,2.87
2018-08-31T08:23:11.020Z,2.50
2018-08-31T08:27:13.709Z,2.30
2018-08-31T08:31:16.443Z,2.80
2018-08-31T08:35:19.848Z,2.67
2018-08-31T08:39:22.879Z,2.50
2018-08-31T08:43:25.594Z,3.40
2018-08-31T08:47:28.438Z,2.43
2018-08-31T08:51:31.123Z,1.63
2018-08-31T08:55:33.927Z,2.00
2018-08-31T08:59:36.602Z,1.53
2018-08-31T09:03:39.197Z,2.70
2018-08-31T09:07:41.905Z,2.00
2018-08-31T09:11:44.687Z,1.70
2018-08-31T09:15:47.525Z,1.77
2018-08-31T09:19:50.237Z,2.07
2018-08-31T09:23:52.948Z,1.47
2018-08-31T09:27:55.599Z,1.83
2018-08-31T09:31:58.298Z,1.57
2018-08-31T09:36:01.154Z,1.80
2018-08-31T09:40:03.856Z,2.03
2018-08-31T09:44:06.450Z,1.77
2018-08-31T09:48:09.122Z,2.30
2018-08-31T09:52:12.290Z,1.50
2018-08-31T09:56:14.901Z,1.70
2018-08-31T10:00:23.248Z,1.30
2018-08-31T10:04:26.134Z,1.20
2018-08-31T10:08:28.799Z,1.40
2018-08-31T10:12:31.451Z,1.07
2018-08-31T10:16:34.158Z,1.07
2018-08-31T10:20:36.911Z,1.23
2018-08-31T10:24:39.553Z,0.90
2018-08-31T10:28:42.301Z,1.40
2018-08-31T10:32:45.039Z,1.43
2018-08-31T10:36:47.767Z,1.20
2018-08-31T10:40:50.496Z,1.10
2018-08-31T10:44:53.416Z,0.80
2018-08-31T10:48:56.169Z,1.00
2018-08-31T10:52:58.803Z,1.10
2018-08-31T10:57:01.444Z,1.00
2018-08-31T11:01:03.994Z,0.90
2018-08-31T11:05:06.669Z,1.10
2018-08-31T11:09:09.499Z,1.10
2018-08-31T11:13:12.292Z,0.97
2018-08-31T11:17:15.014Z,1.13
2018-08-31T11:21:17.701Z,1.17
2018-08-31T11:25:20.421Z,1.07
2018-08-31T11:29:23.182Z,1.03
2018-08-31T11:33:25.801Z,0.97
2018-08-31T11:37:28.498Z,1.40
2018-08-31T11:41:31.234Z,1.03
2018-08-31T11:45:34.777Z,1.27
2018-08-31T11:49:37.658Z,1.10
2018-08-31T11:53:40.500Z,1.20
2018-08-31T11:57:43.320Z,1.97
2018-08-31T12:01:46.164Z,1.03
2018-08-31T12:05:48.881Z,1.40
2018-08-31T12:09:58.352Z,1.30
2018-08-31T12:14:01.279Z,2.50
2018-08-31T12:18:04.029Z,1.37
2018-08-31T12:22:06.997Z,1.00
2018-08-31T12:26:09.698Z,1.53
2018-08-31T12:30:12.789Z,1.17
2018-08-31T12:34:15.408Z,1.20
2018-08-31T12:38:19.595Z,1.30
2018-08-31T12:42:22.574Z,1.03
2018-08-31T12:46:25.324Z,1.00
2018-08-31T12:50:28.037Z,1.47
2018-08-31T12:54:35.006Z,0.87
2018-08-31T12:58:37.797Z,1.00
2018-08-31T13:02:40.727Z,1.00
2018-08-31T13:06:43.421Z,0.83
2018-08-31T13:10:46.154Z,0.90
2018-08-31T13:14:48.817Z,0.70
2018-08-31T13:18:51.617Z,0.80
2018-08-31T13:22:54.346Z,1.40
2018-08-31T13:26:57.191Z,0.90
2018-08-31T13:30:59.973Z,1.30
2018-08-31T13:35:02.560Z,1.07
2018-08-31T13:39:07.464Z,1.10
2018-08-31T13:43:11.198Z,1.30
2018-08-31T13:47:13.796Z,0.87
2018-08-31T13:51:16.678Z,1.03
2018-08-31T13:55:22.983Z,0.73
2018-08-31T13:59:25.646Z,0.67
2018-08-31T14:03:28.355Z,0.90
2018-08-31T14:07:31.272Z,1.13
2018-08-31T14:11:34.140Z,0.70
2018-08-31T14:15:37.319Z,1.10
2018-08-31T14:19:42.096Z,1.20
2018-08-31T14:23:45.472Z,1.13
2018-08-31T14:32:06.420Z,1.00
2018-08-31T14:36:09.625Z,1.07
2018-08-31T14:40:12.637Z,0.90
2018-08-31T14:44:15.531Z,1.10
2018-08-31T14:48:18.481Z,0.97
2018-08-31T14:52:21.231Z,1.07
2018-08-31T14:56:24.018Z,0.90
2018-08-31T15:00:26.823Z,1.03
2018-08-31T15:04:29.459Z,0.83
2018-08-31T15:08:32.124Z,0.90
2018-08-31T15:12:34.869Z,1.10
2018-08-31T15:16:37.553Z,0.93
2018-08-31T15:20:40.172Z,0.70
2018-08-31T15:24:42.971Z,1.00
2018-08-31T15:28:45.621Z,1.10
2018-08-31T15:32:48.368Z,1.23
2018-08-31T15:36:50.958Z,1.10
2018-08-31T15:40:53.668Z,0.73
2018-08-31T15:44:56.359Z,1.00
2018-08-31T15:48:59.064Z,0.80
2018-08-31T15:53:01.646Z,1.10
2018-08-31T15:57:04.535Z,1.07
2018-08-31T16:01:07.253Z,1.10
2018-08-31T16:05:10.357Z,1.07
2018-08-31T16:09:14.589Z,1.30
2018-08-31T16:13:17.170Z,1.23
2018-08-31T16:17:19.939Z,1.10
2018-08-31T16:21:22.577Z,1.40
2018-08-31T16:25:25.253Z,1.13
2018-08-31T16:29:28.174Z,1.00
2018-08-31T16:33:31.215Z,1.03
2018-08-31T16:37:37.639Z,1.10
2018-08-31T16:41:41.447Z,1.40
2018-08-31T16:45:44.128Z,1.40
2018-08-31T16:49:48.629Z,0.97
2018-08-31T16:53:51.308Z,1.20
2018-08-31T16:57:53.928Z,0.90
2018-08-31T17:01:56.733Z,1.03
2018-08-31T17:05:59.379Z,1.30
2018-08-31T17:10:03.853Z,1.40
2018-08-31T17:14:06.794Z,0.90
2018-08-31T17:18:09.675Z,0.93
2018-08-31T17:22:13.523Z,1.40
2018-08-31T17:26:22.097Z,1.23
2018-08-31T17:30:25.693Z,1.43
2018-08-31T17:34:34.511Z,1.37
2018-08-31T17:38:37.834Z,1.20
2018-08-31T17:42:41.208Z,1.10
2018-08-31T17:46:44.422Z,1.20
2018-08-31T17:50:47.423Z,1.40
2018-08-31T17:54:51.065Z,1.30
2018-08-31T17:58:53.843Z,1.57
2018-08-31T18:02:56.738Z,1.37
2018-08-31T18:07:00.642Z,1.40
2018-08-31T18:11:03.608Z,1.87
2018-08-31T18:15:06.731Z,1.80
2018-08-31T18:19:09.408Z,1.97
2018-08-31T18:23:12.183Z,1.63
2018-08-31T18:27:14.923Z,1.80
2018-08-31T18:31:18.202Z,1.80
2018-08-31T18:35:21.047Z,1.47
2018-08-31T18:39:24.715Z,1.50
2018-08-31T18:43:28.114Z,1.20
2018-08-31T18:47:31.902Z,1.67
2018-08-31T18:51:35.019Z,1.23
2018-08-31T18:55:37.922Z,1.40
2018-08-31T18:59:41.796Z,1.73
2018-08-31T19:03:44.583Z,1.10
2018-08-31T19:07:47.738Z,1.50
2018-08-31T19:11:50.658Z,1.33
2018-08-31T19:15:53.793Z,1.77
2018-08-31T19:19:57.180Z,2.03
2018-08-31T19:24:00.007Z,1.50
2018-08-31T19:28:02.857Z,2.13
2018-08-31T19:32:06.883Z,1.30
2018-08-31T19:36:09.679Z,2.00
2018-08-31T19:40:12.910Z,2.20
2018-08-31T19:44:16.110Z,1.80
2018-08-31T19:48:18.820Z,1.87
2018-08-31T19:52:21.536Z,1.80
2018-08-31T19:56:24.284Z,1.90
2018-08-31T20:00:27.139Z,2.20
2018-08-31T20:04:30.034Z,2.37
2018-08-31T20:08:32.836Z,2.03
2018-08-31T20:12:35.794Z,2.03
2018-08-31T20:16:38.651Z,2.00
2018-08-31T20:20:41.734Z,1.70
2018-08-31T20:24:45.291Z,1.73
2018-08-31T20:28:48.060Z,2.23
2018-08-31T20:32:50.911Z,2.30
2018-08-31T20:36:54.360Z,1.97
2018-08-31T20:40:57.400Z,2.13
2018-08-31T20:45:00.051Z,2.50
2018-08-31T20:49:02.742Z,2.93
2018-08-31T20:53:05.412Z,2.67
2018-08-31T20:57:08.424Z,2.27
2018-08-31T21:01:11.377Z,2.70
2018-08-31T21:05:14.157Z,2.93
2018-08-31T21:09:17.090Z,2.63
2018-08-31T21:13:19.731Z,2.73
2018-08-31T21:17:22.664Z,2.80
2018-08-31T21:21:25.590Z,2.67
2018-08-31T21:25:28.261Z,2.77
2018-08-31T21:29:31.315Z,2.47
2018-08-31T21:33:34.225Z,2.77
2018-08-31T21:37:37.047Z,3.20
2018-08-31T21:41:39.993Z,2.80
2018-08-31T21:45:42.763Z,3.30
2018-08-31T21:49:45.557Z,2.70
2018-08-31T21:53:48.332Z,2.90
2018-08-31T21:57:51.145Z,3.27
2018-08-31T22:01:55.814Z,2.43
2018-08-31T22:05:59.150Z,2.73
2018-08-31T22:10:01.962Z,3.10
2018-08-31T22:14:04.637Z,3.07
2018-08-31T22:18:07.367Z,2.57
2018-08-31T22:22:09.951Z,2.57
2018-08-31T22:26:12.664Z,2.70
2018-08-31T22:30:15.463Z,2.60
2018-08-31T22:34:18.880Z,2.27
2018-08-31T22:38:21.469Z,2.60
2018-08-31T22:42:24.056Z,3.33
2018-08-31T22:46:26.877Z,2.10
2018-08-31T22:50:29.668Z,2.57
2018-08-31T22:54:32.345Z,2.57
2018-08-31T22:58:34.954Z,2.10
2018-08-31T23:02:37.527Z,2.40
2018-08-31T23:06:41.052Z,2.23
2018-08-31T23:10:43.661Z,2.43
2018-08-31T23:14:46.478Z,2.10
2018-08-31T23:18:49.901Z,2.17
2018-08-31T23:22:57.199Z,2.00
2018-08-31T23:31:09.238Z,2.40
2018-08-31T23:35:11.826Z,2.40
2018-08-31T23:39:14.473Z,2.07
2018-08-31T23:43:17.010Z,2.07
2018-08-31T23:47:19.605Z,2.13
2018-08-31T23:51:22.204Z,2.77
2018-08-31T23:55:24.936Z,2.07
2018-08-31T23:59:27.612Z,2.03
